ACT        NSW        VIC        QLD        SA        WA        TAS        NT        INFO        CALC            by VK5ZD

  Atmospheric Gas Attenuation - ITU Rec 676-11   --------------- db/100km ---------------
Station Date Time Temp RH % AH g/m3 Dew Point Wind Direction Speed kph Gust kph Barometer mB Rainfall Since 9am 24GHz 47GHz 76GHz 122GHz 134GHz 241GHz
Aireys Inlet 27 13:10 12.3 59 6.41 4.5 11 15 1013.1 0 15.0 22.9 32.0 83.5 72.0 245.7
Ararat 27 09:00 8.8 71 6.18 3.8 9 1026 35 14.6 23.9 33.0 86.0 73.1 249.0
Avalon 27 13:10 12.8 53 5.94 3.5 19 22 1026.4 0 14.0 22.5 30.5 79.5 66.6 226.6
Bairnsdale 27 13:10 12.2 48 5.18 1.5 13 17 1024.7 0 12.4 21.5 27.9 72.5 57.8 195.7
Ballarat 27 13:10 10.5 56 5.43 2.1 17 19 1025.8 0 13.0 22.3 29.5 76.6 62.2 210.8
Ben Nevis 27 13:10 8.1 68 5.66 2.6 11 17 1013.1 0 13.5 22.8 30.7 80.2 66.3 225.1
Benalla 27 09:00 11 63 6.31 4.3 11 1023.9 0.8 14.8 23.4 32.5 84.8 72.6 247.6
Bendigo 27 13:10 13.5 45 5.26 1.8 17 20 1024.9 0.2 12.5 21.3 27.8 72.1 57.8 196.0
Cape Nelson 27 13:10 17.1 39 5.68 3.1 17 20 1027.4 0 13.3 21.1 28.1 73.0 60.2 204.7
Cape Otway 27 13:10 12.1 46 4.93 0.8 15 19 1022.5 0 11.9 21.0 27.0 70.0 54.8 185.2
Casterton 27 13:10 13.6 68 8 7.8 7 7 1026.1 0 18.3 25.5 38.1 99.6 91.8 315.1
Castlemaine 27 09:00 9 69 6.09 3.6 6 1013.1 0.6 14.4 23.2 32.0 83.7 70.9 241.7
Cerberus 27 13:10 12.1 56 6.01 3.6 17 19 1026 0 14.1 22.8 31.0 80.8 68.0 231.6
Charlton 27 13:10 15.1 40 5.16 1.6 15 17 1025.6 0 12.2 20.8 26.9 69.8 55.6 188.2
Coldstream 27 13:10 12.8 50 5.6 2.6 7 9 1025.7 0 13.2 22.0 29.3 76.1 62.4 212.0
Combienbar 27 13:10 7.3 61 4.82 0.3 9 11 1022.7 0 11.8 22.0 28.2 73.2 56.8 191.7
Dartmoor 27 13:10 13.8 59 7.03 5.9 15 19 1026.9 0 16.2 23.9 34.2 89.4 79.2 271.0
East Sale Airport 27 13:10 13 51 5.78 3.1 19 22 1024.6 0 13.6 22.2 29.8 77.6 64.4 218.9
Echuca 27 09:00 10.9 76 7.56 6.9 13 1025.2 0.1 17.5 25.5 37.5 98.2 89.0 305.2
Edenhope 27 13:10 13.4 56 6.51 4.8 9 11 1013.1 0 15.2 22.7 31.9 83.3 72.2 246.7
Eildon Fire Tower 27 13:10 9.3 61 5.48 2.1 15 19 1013.1 0 13.1 22.2 29.6 77.2 63.0 213.8
Essendon Airport 27 13:10 12.8 52 5.83 3.2 24 28 1026.2 0 13.7 22.3 30.1 78.4 65.2 221.9
Falls Creek 27 13:10 -1.6 89 3.86 -3.2 11 11 1022 4.8 10.0 22.7 27.5 71.3 50.5 168.1
Ferny Creek 27 13:10 8.4 53 4.5 -0.6 6 6 1013.1 0 11.0 20.9 26.3 68.3 51.7 173.9
Frankston (Ballam Park) 27 13:10 12.2 50 5.4 2.1 6 7 1013.1 0 12.8 21.4 28.3 73.6 59.8 202.9
Gabo Island 27 13:10 12.1 85 9.12 9.7 56 61 1022.5 0.2 20.8 27.6 43.3 113.5 108.5 373.5
Geelong Racecourse 27 13:10 13.1 56 6.39 4.5 15 17 1013.1 0.2 14.9 22.6 31.6 82.4 71.0 242.4
Gelantipy 27 13:10 7.3 53 4.19 -1.6 20 24 1022.8 0 10.4 21.1 25.9 67.0 49.1 164.5
Hamilton 27 13:10 12.5 48 5.28 1.8 9 11 1026.7 0 12.6 21.6 28.2 73.3 58.9 199.5
Hogan Island 27 13:10 11.7 100 10.46 11.7 54 57 1023.3 0 23.7 30.1 49.3 129.7 128.3 442.6
Hopetoun Airport 27 13:10 15.1 53 6.84 5.6 13 15 1026 0 15.8 23.3 32.9 86.0 75.5 258.3
Hunters Hill 27 13:10 7.7 64 5.19 1.3 4 6 1013.1 0 12.5 22.1 29.1 75.8 60.6 205.3
Kanagulk 27 13:10 12.4 54 5.9 3.4 13 15 1026.4 0 13.9 22.5 30.5 79.5 66.4 226.0
Kerang 27 09:00 10.2 78 7.42 6.6 6 1013.1 0 17.2 25.0 36.8 96.4 87.1 298.3
Kilmore Gap 27 13:10 8.7 61 5.28 1.6 13 17 1025.7 0 12.7 22.5 29.5 76.8 61.7 209.0
Kingfish B 27 12:00 11.7 48 5.02 1.2 39 43 1013.1 0 12.0 20.9 27.1 70.4 55.7 188.3
Kyabram 27 13:10 14 42 5.07 1.3 13 15 1013.1 0 12.1 20.5 26.5 68.9 54.7 185.1
Lakes Entrance 27 09:00 11.9 57 6.04 3.8 22 1013.1 2 14.2 22.4 30.7 80.2 67.8 230.9
Latrobe Valley 27 13:10 13.3 52 6.01 3.7 20 22 1024.8 0 14.1 22.4 30.5 79.5 66.9 227.9
Laverton 27 13:10 12.4 51 5.57 2.6 15 15 1026.5 0 13.2 22.1 29.3 76.2 62.4 212.0
Longerenong 27 13:10 14.5 48 5.97 3.6 7 11 1013.1 0.2 14.0 21.7 29.5 77.0 64.8 220.6
Mallacoota 27 13:10 12.1 48 5.15 1.4 22 28 1022.9 0.4 12.3 21.4 27.8 72.1 57.4 194.4
Mangalore 27 13:10 12.3 52 5.65 2.7 15 20 1025.1 0 13.4 22.1 29.6 77.0 63.4 215.4
Maryborough 27 09:00 10.8 54 5.34 1.9 4 1013.1 1 12.8 21.6 28.5 74.3 60.1 203.9
Melbourne (Olympic Park) 27 13:10 13 52 5.9 3.4 15 22 1026.2 0 13.9 22.4 30.3 78.9 65.9 224.3
Melbourne Airport 27 13:10 12 45 4.8 0.4 26 30 1026.2 0 11.6 21.0 26.7 69.1 53.5 180.6
Mildura 27 13:10 15.3 46 6.01 3.8 2 4 1026 0 14.0 22.0 29.8 77.7 65.3 222.6
Moorabbin Airport 27 13:10 12.7 54 6.01 3.6 24 33 1026.1 0 14.1 22.6 30.8 80.2 67.5 229.9
Mortlake 27 13:10 11.9 53 5.61 2.6 9 13 1026.8 0 13.3 22.2 29.7 77.1 63.3 215.1
Mount Baw Baw 27 13:10 -0.5 100 4.69 -0.5 0 0 1013.1 4 11.7 23.4 30.1 78.5 60.5 203.6
Mount Buller 27 13:10 -0.1 99 4.77 -0.2 1013.1 1 11.9 23.4 30.3 79.0 61.3 206.3
Mount Gellibrand 27 13:10 10.4 71 6.84 5.5 6 7 1026.2 0 16.0 24.5 34.9 91.2 80.2 274.0
Mount Hotham 27 13:10 -2.3 99 4.09 -2.4 4 6 1013.1 0 10.5 22.9 28.3 73.7 53.6 179.2
Mount Hotham Airport 27 13:10 5 57 3.88 -2.8 6 9 1024.5 0.2 9.8 21.2 25.5 65.9 46.8 155.9
Mount Moornapa 27 13:10 9.7 53 4.89 0.6 6 9 1013.1 0 11.8 21.2 27.3 70.9 55.5 187.5
Mount Nowa Nowa 27 13:10 10.6 52 5.08 1.1 13 17 1013.1 0 12.2 21.3 27.7 72.0 57.1 193.4
Mount William 27 13:10 4.6 97 6.42 4.1 7 9 1013.1 0 15.3 24.9 35.2 92.2 79.6 271.4
Nhill Aerodrome 27 13:10 13.6 60 7.06 6 11 13 1026.2 0 16.3 24.0 34.4 89.9 79.7 272.9
Omeo 27 13:10 10.5 45 4.37 -0.9 15 20 1023.6 0.2 10.7 20.6 25.5 66.1 49.3 165.7
Orbost 27 13:10 12.3 57 6.19 4.2 17 22 1024.5 0 14.5 22.9 31.6 82.3 70.0 238.5
Port Fairy 27 13:10 12.6 58 6.42 4.5 6 9 1027.2 0 15.0 23.3 32.4 84.5 72.7 248.2
Portland Airport 27 13:10 12.1 50 5.36 2 15 19 1027.4 0 12.8 21.8 28.7 74.5 60.2 204.0
Pound Creek 27 13:10 12.4 55 6.01 3.8 17 20 1025.6 0 14.1 22.7 30.9 80.5 67.7 230.6
Puckapunyal West (Defence) 27 13:10 12.9 54 6.09 3.8 17 20 1013.1 0.2 14.3 22.2 30.5 79.7 67.5 230.2
Puckapunyal-Lyon Hill (Defence) 27 13:10 11.9 47 4.98 0.9 15 17 1013.1 0 12.0 20.8 26.9 69.9 55.0 186.2
Redesdale 27 13:10 13.2 50 5.74 3 13 15 1013.1 0.2 13.5 21.6 29.1 76.0 63.1 214.6
Rhyll 27 13:10 11.6 54 5.61 2.6 15 24 1026 0 13.3 22.3 29.7 77.3 63.5 215.7
Rutherglen 27 13:10 14.5 50 6.22 4.2 15 17 1013.1 0 14.5 22.0 30.4 79.4 67.7 231.1
Scoresby 27 13:10 12.1 52 5.58 2.5 11 11 1013.1 0 13.2 21.7 29.0 75.5 62.0 210.7
Sheoaks 27 13:10 10.8 59 5.83 3.1 2 4 1026.3 0 13.8 22.8 30.9 80.4 66.9 227.5
Shepparton 27 13:10 14.1 44 5.34 2 19 20 1025 0 12.7 21.3 27.8 72.3 58.3 197.8
Stawell 27 13:10 12.6 50 5.53 2.5 15 17 1026 0 13.1 21.9 29.1 75.6 61.8 209.7
Strathbogie 27 09:00 7.7 67 5.44 2.1 9 1013.1 1 13.1 22.5 30.0 78.3 63.8 216.4
Swan Hill 27 13:10 16.4 40 5.58 2.8 7 9 1025.1 0 13.1 21.1 27.9 72.5 59.4 202.0
Tatura 27 13:10 13.7 46 5.45 2.3 9 11 1013.1 0 12.9 21.1 27.9 72.8 59.3 201.2
Viewbank 27 13:10 13.9 52 6.23 4.2 19 24 1025.8 0 14.5 22.6 31.2 81.2 69.1 235.8
Walpeup 27 13:10 15.4 50 6.57 5 9 17 1013.1 0 15.2 22.3 31.3 81.9 71.1 243.1
Wangaratta 27 13:10 14.6 48 6.01 3.7 19 20 1023.9 0 14.0 22.1 30.0 78.2 65.8 224.1
Warracknabeal Airport 27 13:10 15 53 6.8 5.5 17 20 1025.8 0 15.7 23.2 32.8 85.7 75.1 256.8
Warragul (Nilma North) 27 13:10 12.4 53 5.79 3.1 17 20 1013.1 0 13.7 21.9 29.6 77.2 64.3 218.8
Warrnambool 27 13:10 12.3 59 6.41 4.5 6 7 1027.2 0 15.0 23.4 32.5 84.8 72.9 248.7
Westmere 27 13:10 11.7 56 5.86 3.2 9 11 1026.7 0 13.8 22.7 30.7 79.8 66.5 226.3
Wilsons Promontory 27 13:10 11 48 4.81 0.4 43 50 1023.6 0 11.6 21.2 26.9 69.9 54.2 182.9
Yanakie 27 13:10 12.3 59 6.41 4.5 19 22 1013.1 0 15.0 22.9 32.0 83.5 72.0 245.7
Yarram Airport 27 13:10 13 57 6.46 4.7 26 30 1024.6 0 15.1 23.2 32.3 84.3 72.7 248.1
Yarrawonga 27 13:10 15.1 45 5.81 3.2 22 26 1024.5 0 13.6 21.7 29.1 75.8 63.0 214.6

Last Refresh: 27-Sep-2020 12:49:55

The information presented on this site is sourced from the Bureau of Meteorology.  Copyright in all material sourced from the Bureau of Meteorology resides with the Commonwealth of Australia.